Main page
METAR-TAF:

METAR-TAF

Airports :

Las Cruces International Airport

Las Cruces, New Mexico, United States

latitude: 32-17-22N, longitude: 106-55-19W, elevation: 1358 m

Current weather observation

The report was made 23 minutes ago, at 06:55 UTC
Wind 14 kt from the West/Northwest with gusts up to 20 kt
Temperature 9°C
Humidity 46%
Pressure 1014 hPa
Visibility: 16.1 km
Clear sky

METAR: KLRU 160655Z AUTO 29014G20KT 10SM CLR 09/M02 A2993 RMK AO2 T00901020

Time: 00:18 (07:18 UTC)

Forecast

The report was made 1 hour and 45 minutes ago, at 05:33 UTC
Forecast valid from 16 at 06 UTC to 17 at 06 UTC
Wind 9 kt from the Northwest
Visibility: 10 km
Clear sky
From 16 at 0800 UTC
Wind 8 kt from the West/Northwest
Visibility: 10 km
Clear sky
From 16 at 1700 UTC
Wind 10 kt from the North
Visibility: 10 km
Scattered clouds at a height of 25000 ft

TAF: KLRU 160533Z 1606/1706 31009KT P6SM SKC WS020/28034KT FM160800 30008KT P6SM SKC FM161700 35010KT P6SM SCT250

Weather observations and forecasts of more than 4000 airports (METAR and TAF reports).

The available stations are represented by yellow and red dots on the map.

Hover mouse over dot to see the name of the station.

Then click to see weather observations and forecasts.

To change the map : click on the green buttons with a black cross to zoom in, on the green button with a dash to zoom out, or on the green arrows for adjacent maps.


METAR-TAF: